createdAt,value
2016-11-27T00:00:34.733Z,1006.41
2016-11-27T00:01:34.320Z,1006.41
2016-11-27T00:02:34.296Z,1006.4
2016-11-27T00:03:34.538Z,1006.41
2016-11-27T00:04:34.356Z,1006.39
2016-11-27T00:05:34.510Z,1006.42
2016-11-27T00:06:34.599Z,1006.4
2016-11-27T00:07:34.888Z,1006.42
2016-11-27T00:08:34.360Z,1006.43
2016-11-27T00:09:34.870Z,1006.44
2016-11-27T00:10:34.500Z,1006.44
2016-11-27T00:11:34.465Z,1006.4
2016-11-27T00:12:35.000Z,1006.38
2016-11-27T00:13:34.751Z,1006.43
2016-11-27T00:14:34.418Z,1006.41
2016-11-27T00:15:34.457Z,1006.38
2016-11-27T00:16:34.729Z,1006.39
2016-11-27T00:17:34.586Z,1006.35
2016-11-27T00:18:34.419Z,1006.35
2016-11-27T00:19:34.469Z,1006.35
2016-11-27T00:20:34.561Z,1006.34
2016-11-27T00:21:34.800Z,1006.38
2016-11-27T00:22:34.794Z,1006.35
2016-11-27T00:23:34.598Z,1006.38
2016-11-27T00:24:34.895Z,1006.36
2016-11-27T00:25:34.641Z,1006.33
2016-11-27T00:26:34.686Z,1006.3
2016-11-27T00:27:34.702Z,1006.35
2016-11-27T00:28:34.651Z,1006.38
2016-11-27T00:29:34.529Z,1006.35
2016-11-27T00:30:34.621Z,1006.31
2016-11-27T00:31:34.629Z,1006.3
2016-11-27T00:32:34.604Z,1006.31
2016-11-27T00:33:34.445Z,1006.29
2016-11-27T00:34:34.752Z,1006.36
2016-11-27T00:35:35.095Z,1006.35
2016-11-27T00:36:34.666Z,1006.36
2016-11-27T00:37:34.608Z,1006.32
2016-11-27T00:38:34.606Z,1006.32
2016-11-27T00:39:34.762Z,1006.32
2016-11-27T00:40:34.596Z,1006.33
2016-11-27T00:41:34.899Z,1006.32
2016-11-27T00:42:34.688Z,1006.31
2016-11-27T00:43:34.729Z,1006.3
2016-11-27T00:44:34.766Z,1006.25
2016-11-27T00:45:34.768Z,1006.25
2016-11-27T00:46:34.722Z,1006.27
2016-11-27T00:47:34.689Z,1006.25
2016-11-27T00:48:35.036Z,1006.28
2016-11-27T00:49:34.768Z,1006.3
2016-11-27T00:50:35.015Z,1006.27
2016-11-27T00:51:34.926Z,1006.27
2016-11-27T00:52:34.757Z,1006.3
2016-11-27T00:53:34.851Z,1006.29
2016-11-27T00:54:35.005Z,1006.28
2016-11-27T00:55:34.782Z,1006.3
2016-11-27T00:56:34.916Z,1006.28
2016-11-27T00:57:34.984Z,1006.23
2016-11-27T00:58:34.856Z,1006.2
2016-11-27T00:59:35.049Z,1006.2
2016-11-27T01:00:35.156Z,1006.16
2016-11-27T01:01:35.205Z,1006.2
2016-11-27T01:02:35.068Z,1006.18
2016-11-27T01:03:35.696Z,1006.21
2016-11-27T01:04:35.053Z,1006.19
2016-11-27T01:05:34.961Z,1006.18
2016-11-27T01:06:35.093Z,1006.23
2016-11-27T01:07:35.312Z,1006.22
2016-11-27T01:08:34.986Z,1006.25
2016-11-27T01:09:35.112Z,1006.21
2016-11-27T01:10:34.986Z,1006.15
2016-11-27T01:11:35.039Z,1006.2
2016-11-27T01:12:35.271Z,1006.21
2016-11-27T01:13:35.638Z,1006.17
2016-11-27T01:14:35.392Z,1006.15
2016-11-27T01:15:35.212Z,1006.22
2016-11-27T01:16:34.994Z,1006.17
2016-11-27T01:17:35.122Z,1006.17
2016-11-27T01:18:35.328Z,1006.15
2016-11-27T01:19:35.324Z,1006.21
2016-11-27T01:20:35.143Z,1006.29
2016-11-27T01:21:35.326Z,1006.25
2016-11-27T01:22:35.159Z,1006.32
2016-11-27T01:23:35.313Z,1006.31
2016-11-27T01:24:35.287Z,1006.3
2016-11-27T01:25:35.221Z,1006.31
2016-11-27T01:26:35.259Z,1006.35
2016-11-27T01:27:35.310Z,1006.31
2016-11-27T01:28:35.193Z,1006.29
2016-11-27T01:29:35.358Z,1006.29
2016-11-27T01:30:35.487Z,1006.32
2016-11-27T01:31:35.399Z,1006.32
2016-11-27T01:32:35.539Z,1006.28
2016-11-27T01:33:35.649Z,1006.32
2016-11-27T01:34:35.277Z,1006.3
2016-11-27T01:35:35.300Z,1006.3
2016-11-27T01:36:35.458Z,1006.29
2016-11-27T01:37:35.494Z,1006.31
2016-11-27T01:38:35.408Z,1006.32
2016-11-27T01:39:35.748Z,1006.32
2016-11-27T01:40:35.947Z,1006.35
2016-11-27T01:41:35.677Z,1006.33
2016-11-27T01:42:35.438Z,1006.38
2016-11-27T01:43:35.566Z,1006.34
2016-11-27T01:44:35.612Z,1006.33
2016-11-27T01:45:35.568Z,1006.36
2016-11-27T01:46:35.642Z,1006.33
2016-11-27T01:47:35.716Z,1006.34
2016-11-27T01:48:35.629Z,1006.34
2016-11-27T01:49:35.534Z,1006.29
2016-11-27T01:50:35.823Z,1006.33
2016-11-27T01:51:35.832Z,1006.34
2016-11-27T01:52:35.810Z,1006.32
2016-11-27T01:53:35.856Z,1006.3
2016-11-27T01:54:35.523Z,1006.35
2016-11-27T01:55:35.932Z,1006.35
2016-11-27T01:56:36.265Z,1006.42
2016-11-27T01:57:36.012Z,1006.4
2016-11-27T01:58:35.713Z,1006.36
2016-11-27T01:59:35.651Z,1006.41
2016-11-27T02:00:35.729Z,1006.42
2016-11-27T02:01:35.741Z,1006.41
2016-11-27T02:02:35.756Z,1006.41
2016-11-27T02:03:35.716Z,1006.42
2016-11-27T02:04:35.635Z,1006.38
2016-11-27T02:05:35.867Z,1006.41
2016-11-27T02:06:35.967Z,1006.37
2016-11-27T02:07:35.872Z,1006.32
2016-11-27T02:08:35.858Z,1006.36
2016-11-27T02:09:35.831Z,1006.29
2016-11-27T02:10:35.921Z,1006.3
2016-11-27T02:11:35.768Z,1006.27
2016-11-27T02:12:35.809Z,1006.25
2016-11-27T02:13:35.837Z,1006.27
2016-11-27T02:14:35.902Z,1006.26
2016-11-27T02:15:36.789Z,1006.28
2016-11-27T02:16:35.903Z,1006.27
2016-11-27T02:17:36.153Z,1006.28
2016-11-27T02:18:36.197Z,1006.25
2016-11-27T02:19:35.976Z,1006.31
2016-11-27T02:20:36.446Z,1006.32
2016-11-27T02:21:36.358Z,1006.35
2016-11-27T02:22:36.041Z,1006.34
2016-11-27T02:23:36.017Z,1006.33
2016-11-27T02:24:36.114Z,1006.3
2016-11-27T02:25:36.251Z,1006.32
2016-11-27T02:26:36.045Z,1006.29
2016-11-27T02:27:36.157Z,1006.28
2016-11-27T02:28:36.149Z,1006.31
2016-11-27T02:29:36.203Z,1006.33
2016-11-27T02:30:36.034Z,1006.31
2016-11-27T02:31:36.165Z,1006.3
2016-11-27T02:32:36.201Z,1006.3
2016-11-27T02:33:36.182Z,1006.27
2016-11-27T02:34:36.192Z,1006.26
2016-11-27T02:35:36.754Z,1006.26
2016-11-27T02:36:36.139Z,1006.2
2016-11-27T02:37:36.186Z,1006.25
2016-11-27T02:38:36.119Z,1006.19
2016-11-27T02:39:36.166Z,1006.16
2016-11-27T02:40:36.220Z,1006.19
2016-11-27T02:41:36.490Z,1006.18
2016-11-27T02:42:36.141Z,1006.19
2016-11-27T02:43:36.268Z,1006.16
2016-11-27T02:44:36.353Z,1006.17
2016-11-27T02:45:36.562Z,1006.13
2016-11-27T02:46:36.305Z,1006.15
2016-11-27T02:47:36.244Z,1006.17
2016-11-27T02:48:36.328Z,1006.16
2016-11-27T02:49:36.537Z,1006.16
2016-11-27T02:50:36.305Z,1006.13
2016-11-27T02:51:36.547Z,1006.19
2016-11-27T02:52:36.347Z,1006.2
2016-11-27T02:53:36.541Z,1006.23
2016-11-27T02:54:36.349Z,1006.26
2016-11-27T02:55:36.338Z,1006.19
2016-11-27T02:56:36.701Z,1006.23
2016-11-27T02:57:36.326Z,1006.24
2016-11-27T02:58:36.436Z,1006.17
2016-11-27T02:59:36.944Z,1006.2
2016-11-27T03:00:36.813Z,1006.21
2016-11-27T03:01:36.730Z,1006.19
2016-11-27T03:02:36.398Z,1006.18
2016-11-27T03:03:36.451Z,1006.17
2016-11-27T03:04:36.539Z,1006.17
2016-11-27T03:05:36.518Z,1006.13
2016-11-27T03:06:36.420Z,1006.13
2016-11-27T03:07:36.539Z,1006.13
2016-11-27T03:08:36.620Z,1006.14
2016-11-27T03:09:36.699Z,1006.13
2016-11-27T03:10:36.741Z,1006.11
2016-11-27T03:11:36.815Z,1006.06
2016-11-27T03:12:36.856Z,1005.99
2016-11-27T03:13:36.725Z,1006.01
2016-11-27T03:14:36.920Z,1006.05
2016-11-27T03:15:36.824Z,1006.09
2016-11-27T03:16:36.811Z,1006.09
2016-11-27T03:17:36.969Z,1006.08
2016-11-27T03:18:36.798Z,1006.19
2016-11-27T03:19:36.788Z,1006.2
2016-11-27T03:20:36.872Z,1006.17
2016-11-27T03:21:36.859Z,1006.17
2016-11-27T03:22:36.744Z,1006.16
2016-11-27T03:23:36.836Z,1006.17
2016-11-27T03:24:36.791Z,1006.11
2016-11-27T03:25:36.766Z,1006.11
2016-11-27T03:26:36.720Z,1006.07
2016-11-27T03:27:36.786Z,1006.15
2016-11-27T03:28:36.923Z,1006.11
2016-11-27T03:29:37.006Z,1006.11
2016-11-27T03:30:36.775Z,1006.11
2016-11-27T03:31:36.902Z,1006.15
2016-11-27T03:32:36.739Z,1006.14
2016-11-27T03:33:36.835Z,1006.12
2016-11-27T03:34:36.855Z,1006.09
2016-11-27T03:35:37.095Z,1006.1
2016-11-27T03:36:37.075Z,1006.1
2016-11-27T03:37:36.906Z,1006.06
2016-11-27T03:38:37.468Z,1006.05
2016-11-27T03:39:37.101Z,1006.09
2016-11-27T03:40:36.889Z,1006.05
2016-11-27T03:41:37.455Z,1006.09
2016-11-27T03:42:37.049Z,1006.05
2016-11-27T03:43:37.302Z,1006.02
2016-11-27T03:44:37.099Z,1005.99
2016-11-27T03:45:37.277Z,1006.01
2016-11-27T03:46:37.139Z,1005.97
2016-11-27T03:47:37.014Z,1006.01
2016-11-27T03:48:36.986Z,1006.01
2016-11-27T03:49:37.188Z,1006.05
2016-11-27T03:50:37.056Z,1006.03
2016-11-27T03:51:37.272Z,1006.06
2016-11-27T03:52:37.078Z,1006.03
2016-11-27T03:53:37.534Z,1006
2016-11-27T03:54:37.121Z,1006.04
2016-11-27T03:55:37.187Z,1006.05
2016-11-27T03:56:37.455Z,1006.06
2016-11-27T03:57:37.519Z,1006.07
2016-11-27T03:58:37.205Z,1006.08
2016-11-27T03:59:37.312Z,1006.09
2016-11-27T04:00:37.604Z,1006.12
2016-11-27T04:01:37.683Z,1006.12
2016-11-27T04:02:37.752Z,1006.11
2016-11-27T04:03:37.563Z,1006.13
2016-11-27T04:04:37.234Z,1006.1
2016-11-27T04:05:37.371Z,1006.08
2016-11-27T04:06:37.232Z,1006.05
2016-11-27T04:07:37.342Z,1006.01
2016-11-27T04:08:37.642Z,1006.08
2016-11-27T04:09:37.340Z,1006.09
2016-11-27T04:10:37.719Z,1006.1
2016-11-27T04:11:37.347Z,1006.1
2016-11-27T04:12:37.880Z,1006.08
2016-11-27T04:13:37.339Z,1006.02
2016-11-27T04:14:37.462Z,1006.01
2016-11-27T04:15:37.685Z,1006.01
2016-11-27T04:16:37.496Z,1006.02
2016-11-27T04:17:37.583Z,1006.08
2016-11-27T04:18:37.619Z,1006.06
2016-11-27T04:19:37.521Z,1006.1
2016-11-27T04:20:37.486Z,1006.11
2016-11-27T04:21:37.544Z,1006.06
2016-11-27T04:22:37.544Z,1006.04
2016-11-27T04:23:37.619Z,1006.04
2016-11-27T04:24:37.629Z,1006.07
2016-11-27T04:25:37.686Z,1006.07
2016-11-27T04:26:37.565Z,1006.07
2016-11-27T04:27:37.571Z,1006.08
2016-11-27T04:28:37.755Z,1006.05
2016-11-27T04:29:37.716Z,1006.08
2016-11-27T04:30:37.610Z,1006.09
2016-11-27T04:31:37.685Z,1006.07
2016-11-27T04:32:37.542Z,1006.02
2016-11-27T04:33:37.887Z,1006.08
2016-11-27T04:34:37.564Z,1006.05
2016-11-27T04:35:37.594Z,1005.98
2016-11-27T04:36:37.965Z,1005.93
2016-11-27T04:37:37.996Z,1005.95
2016-11-27T04:38:37.674Z,1005.96
2016-11-27T04:39:37.863Z,1006.02
2016-11-27T04:40:37.873Z,1006.07
2016-11-27T04:41:37.897Z,1006.1
2016-11-27T04:42:38.112Z,1006.13
2016-11-27T04:43:37.830Z,1006.05
2016-11-27T04:44:37.896Z,1006.05
2016-11-27T04:45:37.985Z,1005.95
2016-11-27T04:46:37.940Z,1005.92
2016-11-27T04:47:37.993Z,1005.91
2016-11-27T04:48:37.789Z,1005.94
2016-11-27T04:49:37.778Z,1005.94
2016-11-27T04:50:38.337Z,1005.96
2016-11-27T04:51:37.878Z,1006.01
2016-11-27T04:52:37.853Z,1006.02
2016-11-27T04:53:37.872Z,1006.06
2016-11-27T04:54:37.955Z,1006.11
2016-11-27T04:55:38.045Z,1006.11
2016-11-27T04:56:38.118Z,1006.1
2016-11-27T04:57:38.411Z,1006.07
2016-11-27T04:58:38.011Z,1006.01
2016-11-27T04:59:37.875Z,1005.97
2016-11-27T05:00:38.139Z,1005.98
2016-11-27T05:01:38.118Z,1006
2016-11-27T05:02:38.072Z,1006.06
2016-11-27T05:03:38.031Z,1006.09
2016-11-27T05:04:38.203Z,1006.07
2016-11-27T05:05:38.077Z,1006.01
2016-11-27T05:06:38.082Z,1005.93
2016-11-27T05:07:38.256Z,1005.95
2016-11-27T05:08:38.138Z,1006.01
2016-11-27T05:09:38.291Z,1006.05
2016-11-27T05:10:38.125Z,1006.1
2016-11-27T05:11:38.326Z,1006.07
2016-11-27T05:12:38.197Z,1006.07
2016-11-27T05:13:38.495Z,1005.96
2016-11-27T05:14:38.070Z,1006.01
2016-11-27T05:15:38.303Z,1006.12
2016-11-27T05:16:38.410Z,1006.18
2016-11-27T05:17:38.420Z,1006.21
2016-11-27T05:18:38.195Z,1006.18
2016-11-27T05:19:38.136Z,1006.16
2016-11-27T05:20:38.528Z,1006.15
2016-11-27T05:21:38.225Z,1006.17
2016-11-27T05:22:38.622Z,1006.18
2016-11-27T05:23:38.270Z,1006.13
2016-11-27T05:24:38.410Z,1006.18
2016-11-27T05:25:38.530Z,1006.2
2016-11-27T05:26:38.473Z,1006.25
2016-11-27T05:27:38.427Z,1006.27
2016-11-27T05:28:38.451Z,1006.3
2016-11-27T05:29:38.589Z,1006.3
2016-11-27T05:30:38.283Z,1006.26
2016-11-27T05:31:38.522Z,1006.22
2016-11-27T05:32:38.415Z,1006.18
2016-11-27T05:33:38.590Z,1006.17
2016-11-27T05:34:38.831Z,1006.22
2016-11-27T05:35:38.467Z,1006.21
2016-11-27T05:36:38.670Z,1006.24
2016-11-27T05:37:38.509Z,1006.27
2016-11-27T05:38:38.436Z,1006.3
2016-11-27T05:39:38.677Z,1006.28
2016-11-27T05:40:38.520Z,1006.34
2016-11-27T05:41:38.545Z,1006.33
2016-11-27T05:42:38.541Z,1006.32
2016-11-27T05:43:38.456Z,1006.32
2016-11-27T05:44:38.515Z,1006.27
2016-11-27T05:45:38.428Z,1006.3
2016-11-27T05:46:39.387Z,1006.34
2016-11-27T05:47:39.815Z,1006.33
2016-11-27T05:48:38.832Z,1006.27
2016-11-27T05:49:38.830Z,1006.39
2016-11-27T05:50:38.485Z,1006.41
2016-11-27T05:51:38.622Z,1006.46
2016-11-27T05:52:38.692Z,1006.41
2016-11-27T05:53:39.103Z,1006.4
2016-11-27T05:54:38.639Z,1006.36
2016-11-27T05:55:38.829Z,1006.43
2016-11-27T05:56:38.755Z,1006.43
2016-11-27T05:57:38.750Z,1006.46
2016-11-27T05:58:38.902Z,1006.48
2016-11-27T05:59:38.824Z,1006.47
2016-11-27T06:00:39.011Z,1006.43
2016-11-27T06:01:38.903Z,1006.39
2016-11-27T06:02:38.877Z,1006.4
2016-11-27T06:03:39.012Z,1006.49
2016-11-27T06:04:38.979Z,1006.5
2016-11-27T06:05:39.027Z,1006.53
2016-11-27T06:06:38.856Z,1006.54
2016-11-27T06:07:38.844Z,1006.54
2016-11-27T06:08:39.129Z,1006.54
2016-11-27T06:09:39.308Z,1006.53
2016-11-27T06:10:38.973Z,1006.52
2016-11-27T06:11:38.998Z,1006.55
2016-11-27T06:12:39.477Z,1006.59
2016-11-27T06:13:39.063Z,1006.57
2016-11-27T06:14:39.286Z,1006.58
2016-11-27T06:15:39.011Z,1006.54
2016-11-27T06:16:39.354Z,1006.54
2016-11-27T06:17:39.000Z,1006.59
2016-11-27T06:18:39.034Z,1006.61
2016-11-27T06:19:39.262Z,1006.6
2016-11-27T06:20:39.483Z,1006.63
2016-11-27T06:21:39.090Z,1006.6
2016-11-27T06:22:39.072Z,1006.62
2016-11-27T06:23:39.126Z,1006.63
2016-11-27T06:24:39.836Z,1006.64
2016-11-27T06:25:39.047Z,1006.68
2016-11-27T06:26:39.119Z,1006.72
2016-11-27T06:27:39.440Z,1006.76
2016-11-27T06:28:39.268Z,1006.74
2016-11-27T06:29:39.099Z,1006.77
2016-11-27T06:30:39.600Z,1006.83
2016-11-27T06:31:39.505Z,1006.89
2016-11-27T06:32:39.828Z,1006.91
2016-11-27T06:33:39.505Z,1006.92
2016-11-27T06:34:39.749Z,1006.91
2016-11-27T06:35:40.175Z,1006.95
2016-11-27T06:36:39.682Z,1006.94
2016-11-27T06:37:39.890Z,1006.92
2016-11-27T06:38:39.881Z,1006.91
2016-11-27T06:39:39.547Z,1006.88
2016-11-27T06:40:39.529Z,1006.88
2016-11-27T06:41:39.905Z,1006.91
2016-11-27T06:42:39.954Z,1006.95
2016-11-27T06:43:39.960Z,1006.96
2016-11-27T06:44:39.735Z,1006.96
2016-11-27T06:45:40.245Z,1006.98
2016-11-27T06:46:39.567Z,1006.94
2016-11-27T06:47:39.818Z,1006.96
2016-11-27T06:48:39.633Z,1006.99
2016-11-27T06:49:39.660Z,1007
2016-11-27T06:50:39.922Z,1007.03
2016-11-27T06:51:39.878Z,1007
2016-11-27T06:52:39.675Z,1006.98
2016-11-27T06:53:39.663Z,1007.01
2016-11-27T06:54:39.814Z,1007.02
2016-11-27T06:55:40.313Z,1006.97
2016-11-27T06:56:40.089Z,1006.99
2016-11-27T06:57:41.131Z,1007.02
2016-11-27T06:58:39.548Z,1007.02
2016-11-27T06:59:39.725Z,1007.05
2016-11-27T07:00:39.820Z,1007.06
2016-11-27T07:01:39.722Z,1007.08
2016-11-27T07:02:39.945Z,1007.03
2016-11-27T07:03:39.642Z,1007.06
2016-11-27T07:04:39.687Z,1007.08
2016-11-27T07:05:39.622Z,1007.08
2016-11-27T07:06:39.965Z,1007.07
2016-11-27T07:07:39.739Z,1007.05
2016-11-27T07:08:39.866Z,1007.06
2016-11-27T07:09:39.667Z,1007.06
2016-11-27T07:10:39.623Z,1007.04
2016-11-27T07:11:39.662Z,1007.05
2016-11-27T07:12:39.708Z,1006.98
2016-11-27T07:13:39.622Z,1007.04
2016-11-27T07:14:39.896Z,1007.02
2016-11-27T07:15:40.176Z,1007.08
2016-11-27T07:16:39.926Z,1007.05
2016-11-27T07:17:39.924Z,1007.09
2016-11-27T07:18:40.000Z,1007.13
2016-11-27T07:19:40.119Z,1007.13
2016-11-27T07:20:39.856Z,1007.11
2016-11-27T07:21:40.053Z,1007.11
2016-11-27T07:22:39.869Z,1007.07
2016-11-27T07:23:40.063Z,1007.07
2016-11-27T07:24:40.078Z,1007.11
2016-11-27T07:25:39.958Z,1007.11
2016-11-27T07:26:39.979Z,1007.2
2016-11-27T07:27:40.532Z,1007.23
2016-11-27T07:28:39.929Z,1007.27
2016-11-27T07:29:40.008Z,1007.28
2016-11-27T07:30:39.907Z,1007.32
2016-11-27T07:31:40.293Z,1007.31
2016-11-27T07:32:40.234Z,1007.36
2016-11-27T07:33:40.303Z,1007.42
2016-11-27T07:34:40.172Z,1007.45
2016-11-27T07:35:40.195Z,1007.42
2016-11-27T07:36:40.054Z,1007.37
2016-11-27T07:37:40.026Z,1007.39
2016-11-27T07:38:40.365Z,1007.44
2016-11-27T07:39:40.142Z,1007.4
2016-11-27T07:40:40.315Z,1007.45
2016-11-27T07:41:40.187Z,1007.43
2016-11-27T07:42:40.125Z,1007.46
2016-11-27T07:43:40.323Z,1007.42
2016-11-27T07:44:40.146Z,1007.43
2016-11-27T07:45:40.192Z,1007.5
2016-11-27T07:46:40.216Z,1007.49
2016-11-27T07:47:40.690Z,1007.48
2016-11-27T07:48:40.216Z,1007.49
2016-11-27T07:49:40.155Z,1007.55
2016-11-27T07:50:40.785Z,1007.52
2016-11-27T07:51:40.390Z,1007.53
2016-11-27T07:52:40.901Z,1007.53
2016-11-27T07:53:40.279Z,1007.59
2016-11-27T07:54:40.274Z,1007.58
2016-11-27T07:55:40.399Z,1007.61
2016-11-27T07:56:40.363Z,1007.59
2016-11-27T07:57:40.339Z,1007.57
2016-11-27T07:58:40.308Z,1007.53
2016-11-27T07:59:40.268Z,1007.56
2016-11-27T08:00:40.731Z,1007.63
2016-11-27T08:01:40.561Z,1007.61
2016-11-27T08:02:40.398Z,1007.63
2016-11-27T08:03:41.021Z,1007.59
2016-11-27T08:04:40.443Z,1007.56
2016-11-27T08:05:40.567Z,1007.6
2016-11-27T08:06:40.625Z,1007.65
2016-11-27T08:07:40.424Z,1007.75
2016-11-27T08:08:40.582Z,1007.71
2016-11-27T08:09:40.708Z,1007.69
2016-11-27T08:10:40.892Z,1007.66
2016-11-27T08:11:40.558Z,1007.69
2016-11-27T08:12:40.543Z,1007.74
2016-11-27T08:13:40.968Z,1007.77
2016-11-27T08:14:40.887Z,1007.75
2016-11-27T08:15:40.499Z,1007.75
2016-11-27T08:16:40.672Z,1007.68
2016-11-27T08:17:40.751Z,1007.74
2016-11-27T08:18:40.659Z,1007.73
2016-11-27T08:19:41.043Z,1007.78
2016-11-27T08:20:40.816Z,1007.79
2016-11-27T08:21:40.578Z,1007.78
2016-11-27T08:22:40.782Z,1007.77
2016-11-27T08:23:40.762Z,1007.85
2016-11-27T08:24:40.672Z,1007.84
2016-11-27T08:25:40.791Z,1007.87
2016-11-27T08:26:41.030Z,1007.85
2016-11-27T08:27:40.844Z,1007.88
2016-11-27T08:28:40.822Z,1007.87
2016-11-27T08:29:40.779Z,1007.89
2016-11-27T08:30:40.963Z,1007.9
2016-11-27T08:31:40.802Z,1007.92
2016-11-27T08:32:40.812Z,1007.95
2016-11-27T08:33:40.943Z,1007.86
2016-11-27T08:34:40.869Z,1007.93
2016-11-27T08:35:41.261Z,1007.92
2016-11-27T08:36:40.959Z,1008.01
2016-11-27T08:37:40.963Z,1007.94
2016-11-27T08:38:40.927Z,1007.95
2016-11-27T08:39:40.958Z,1007.93
2016-11-27T08:40:41.009Z,1007.97
2016-11-27T08:41:41.169Z,1008.04
2016-11-27T08:42:41.041Z,1008.02
2016-11-27T08:43:41.368Z,1008.04
2016-11-27T08:44:41.168Z,1008.05
2016-11-27T08:45:41.214Z,1008.08
2016-11-27T08:46:41.150Z,1008.1
2016-11-27T08:47:41.338Z,1008.16
2016-11-27T08:48:41.221Z,1008.12
2016-11-27T08:49:41.274Z,1008.15
2016-11-27T08:50:40.919Z,1008.18
2016-11-27T08:51:40.928Z,1008.16
2016-11-27T08:52:40.946Z,1008.2
2016-11-27T08:53:40.967Z,1008.15
2016-11-27T08:54:40.970Z,1008.19
2016-11-27T08:55:40.997Z,1008.17
2016-11-27T08:56:41.447Z,1008.24
2016-11-27T08:57:41.299Z,1008.24
2016-11-27T08:58:41.222Z,1008.26
2016-11-27T08:59:42.269Z,1008.28
2016-11-27T09:00:41.433Z,1008.24
2016-11-27T09:01:41.462Z,1008.26
2016-11-27T09:02:41.235Z,1008.23
2016-11-27T09:03:41.274Z,1008.24
2016-11-27T09:04:41.323Z,1008.29
2016-11-27T09:05:41.190Z,1008.25
2016-11-27T09:06:41.499Z,1008.24
2016-11-27T09:07:41.536Z,1008.2
2016-11-27T09:08:41.349Z,1008.18
2016-11-27T09:09:41.460Z,1008.23
2016-11-27T09:10:41.269Z,1008.25
2016-11-27T09:11:41.470Z,1008.27
2016-11-27T09:12:41.290Z,1008.24
2016-11-27T09:13:41.335Z,1008.2
2016-11-27T09:14:41.542Z,1008.19
2016-11-27T09:15:41.454Z,1008.24
2016-11-27T09:16:41.412Z,1008.27
2016-11-27T09:17:41.391Z,1008.26
2016-11-27T09:18:41.694Z,1008.25
2016-11-27T09:19:41.427Z,1008.28
2016-11-27T09:20:41.440Z,1008.3
2016-11-27T09:21:41.516Z,1008.37
2016-11-27T09:22:41.579Z,1008.33
2016-11-27T09:23:41.555Z,1008.31
2016-11-27T09:24:41.474Z,1008.27
2016-11-27T09:25:41.537Z,1008.29
2016-11-27T09:26:41.625Z,1008.27
2016-11-27T09:27:41.542Z,1008.26
2016-11-27T09:28:41.733Z,1008.24
2016-11-27T09:29:41.638Z,1008.28
2016-11-27T09:30:41.804Z,1008.31
2016-11-27T09:31:41.746Z,1008.32
2016-11-27T09:32:41.659Z,1008.29
2016-11-27T09:33:41.716Z,1008.31
2016-11-27T09:34:41.644Z,1008.31
2016-11-27T09:35:41.793Z,1008.32
2016-11-27T09:36:41.876Z,1008.35
2016-11-27T09:37:41.883Z,1008.35
2016-11-27T09:38:41.805Z,1008.38
2016-11-27T09:39:41.950Z,1008.38
2016-11-27T09:40:42.109Z,1008.37
2016-11-27T09:41:42.102Z,1008.41
2016-11-27T09:42:41.969Z,1008.4
2016-11-27T09:43:41.987Z,1008.43
2016-11-27T09:44:41.880Z,1008.42
2016-11-27T09:45:42.344Z,1008.42
2016-11-27T09:46:42.063Z,1008.46
2016-11-27T09:47:41.954Z,1008.48
2016-11-27T09:48:41.947Z,1008.5
2016-11-27T09:49:42.198Z,1008.45
2016-11-27T09:50:42.146Z,1008.47
2016-11-27T09:51:42.261Z,1008.47
2016-11-27T09:52:41.904Z,1008.47
2016-11-27T09:53:42.060Z,1008.45
2016-11-27T09:54:42.113Z,1008.45
2016-11-27T09:55:42.084Z,1008.45
2016-11-27T09:56:42.180Z,1008.4
2016-11-27T09:57:42.051Z,1008.34
2016-11-27T09:58:42.032Z,1008.39
2016-11-27T09:59:42.000Z,1008.37
2016-11-27T10:00:41.998Z,1008.44
2016-11-27T10:01:42.160Z,1008.43
2016-11-27T10:02:42.196Z,1008.48
2016-11-27T10:03:42.176Z,1008.52
2016-11-27T10:04:42.448Z,1008.49
2016-11-27T10:05:42.687Z,1008.51
2016-11-27T10:06:42.163Z,1008.55
2016-11-27T10:07:42.091Z,1008.5
2016-11-27T10:08:42.174Z,1008.53
2016-11-27T10:09:42.103Z,1008.53
2016-11-27T10:10:42.348Z,1008.54
2016-11-27T10:11:42.276Z,1008.49
2016-11-27T10:12:42.337Z,1008.47
2016-11-27T10:13:42.263Z,1008.43
2016-11-27T10:14:42.277Z,1008.37
2016-11-27T10:15:42.475Z,1008.38
2016-11-27T10:16:42.774Z,1008.39
2016-11-27T10:17:42.707Z,1008.41
2016-11-27T10:18:42.336Z,1008.45
2016-11-27T10:19:42.347Z,1008.44
2016-11-27T10:20:42.466Z,1008.42
2016-11-27T10:21:42.816Z,1008.41
2016-11-27T10:22:42.405Z,1008.4
2016-11-27T10:23:42.617Z,1008.38
2016-11-27T10:24:42.591Z,1008.44
2016-11-27T10:25:42.394Z,1008.43
2016-11-27T10:26:42.365Z,1008.4
2016-11-27T10:27:42.682Z,1008.39
2016-11-27T10:28:42.676Z,1008.39
2016-11-27T10:29:42.452Z,1008.34
2016-11-27T10:30:42.522Z,1008.36
2016-11-27T10:31:42.625Z,1008.41
2016-11-27T10:32:42.395Z,1008.42
2016-11-27T10:33:42.872Z,1008.41
2016-11-27T10:34:42.752Z,1008.37
2016-11-27T10:35:42.474Z,1008.32
2016-11-27T10:36:43.116Z,1008.34
2016-11-27T10:37:42.531Z,1008.33
2016-11-27T10:38:42.939Z,1008.42
2016-11-27T10:39:42.759Z,1008.37
2016-11-27T10:40:42.793Z,1008.36
2016-11-27T10:41:42.742Z,1008.34
2016-11-27T10:42:42.582Z,1008.33
2016-11-27T10:43:42.669Z,1008.31
2016-11-27T10:44:42.585Z,1008.32
2016-11-27T10:45:42.656Z,1008.3
2016-11-27T10:46:42.758Z,1008.3
2016-11-27T10:47:42.736Z,1008.3
2016-11-27T10:48:42.711Z,1008.28
2016-11-27T10:49:42.924Z,1008.31
2016-11-27T10:50:42.848Z,1008.29
2016-11-27T10:51:42.955Z,1008.24
2016-11-27T10:52:42.875Z,1008.32
2016-11-27T10:53:42.867Z,1008.31
2016-11-27T10:54:42.755Z,1008.36
2016-11-27T10:55:43.593Z,1008.29
2016-11-27T10:56:42.907Z,1008.31
2016-11-27T10:57:43.407Z,1008.29
2016-11-27T10:58:43.517Z,1008.36
2016-11-27T10:59:42.907Z,1008.37
2016-11-27T11:00:43.031Z,1008.38
2016-11-27T11:01:43.047Z,1008.41
2016-11-27T11:02:42.896Z,1008.42
2016-11-27T11:03:42.945Z,1008.3
2016-11-27T11:04:43.074Z,1008.32
2016-11-27T11:05:43.048Z,1008.24
2016-11-27T11:06:43.093Z,1008.27
2016-11-27T11:07:43.708Z,1008.3
2016-11-27T11:08:43.219Z,1008.38
2016-11-27T11:09:43.093Z,1008.41
2016-11-27T11:10:43.077Z,1008.43
2016-11-27T11:11:43.542Z,1008.36
2016-11-27T11:12:43.027Z,1008.28
2016-11-27T11:13:43.506Z,1008.26
2016-11-27T11:14:43.171Z,1008.25
2016-11-27T11:15:43.191Z,1008.35
2016-11-27T11:16:43.222Z,1008.32
2016-11-27T11:17:43.203Z,1008.29
2016-11-27T11:18:43.600Z,1008.25
2016-11-27T11:19:43.758Z,1008.16
2016-11-27T11:20:43.248Z,1008.17
2016-11-27T11:21:43.487Z,1008.15
2016-11-27T11:22:43.631Z,1008.15
2016-11-27T11:23:43.560Z,1008.19
2016-11-27T11:24:43.663Z,1008.2
2016-11-27T11:25:43.277Z,1008.18
2016-11-27T11:26:43.610Z,1008.22
2016-11-27T11:27:43.591Z,1008.21
2016-11-27T11:28:43.500Z,1008.24
2016-11-27T11:29:43.640Z,1008.22
2016-11-27T11:30:43.516Z,1008.26
2016-11-27T11:31:43.759Z,1008.24
2016-11-27T11:32:43.727Z,1008.22
2016-11-27T11:33:43.867Z,1008.22
2016-11-27T11:34:43.691Z,1008.17
2016-11-27T11:35:43.691Z,1008.14
2016-11-27T11:36:43.663Z,1008.13
2016-11-27T11:37:43.970Z,1008.13
2016-11-27T11:38:43.757Z,1008.09
2016-11-27T11:39:43.968Z,1008.08
2016-11-27T11:40:44.279Z,1008.12
2016-11-27T11:41:43.834Z,1008.11
2016-11-27T11:42:43.738Z,1008.09
2016-11-27T11:43:43.847Z,1008.15
2016-11-27T11:44:43.729Z,1008.16
2016-11-27T11:45:43.933Z,1008.17
2016-11-27T11:46:43.868Z,1008.18
2016-11-27T11:47:43.675Z,1008.25
2016-11-27T11:48:44.040Z,1008.25
2016-11-27T11:49:44.189Z,1008.18
2016-11-27T11:50:43.968Z,1008.25
2016-11-27T11:51:44.179Z,1008.28
2016-11-27T11:52:44.024Z,1008.24
2016-11-27T11:53:43.919Z,1008.31
2016-11-27T11:54:44.037Z,1008.28
2016-11-27T11:55:43.923Z,1008.19
2016-11-27T11:56:43.964Z,1008.17
2016-11-27T11:57:43.775Z,1008.15
2016-11-27T11:58:44.087Z,1008.14
2016-11-27T11:59:43.970Z,1008.18
2016-11-27T12:00:44.321Z,1008.1
2016-11-27T12:01:44.353Z,1008.11
2016-11-27T12:02:43.931Z,1008.16
2016-11-27T12:03:44.112Z,1008.19
2016-11-27T12:04:44.101Z,1008.2
2016-11-27T12:05:43.982Z,1008.15
2016-11-27T12:06:44.006Z,1008.18
2016-11-27T12:07:43.971Z,1008.11
2016-11-27T12:08:43.990Z,1008.16